Time;durP1;ratioP1;P1;durP2;ratioP2;P2;SDS_P1;SDS_P2;PMS_P1;PMS_P2;Temp;Humidity;BMP_temperature;BMP_pressure;BME280_temperature;BME280_humidity;BME280_pressure;Samples;Min_cycle;Max_cycle;Signal;HPM_P1;HPM_P2
2022/01/18 00:00:11;;;;;;;28.80;10.47;;;6.50;99.90;;;;;;5061129;28;20221;-59
2022/01/18 00:02:39;;;;;;;22.93;6.73;;;6.50;99.90;;;;;;5100230;28;20665;-59
2022/01/18 00:05:13;;;;;;;25.47;6.60;;;6.50;99.90;;;;;;5086236;28;20190;-59
2022/01/18 00:07:41;;;;;;;26.50;6.90;;;6.50;99.90;;;;;;5087250;28;20201;-59
2022/01/18 00:10:10;;;;;;;36.33;7.70;;;6.50;99.90;;;;;;5054509;28;20205;-58
2022/01/18 00:18:07;;;;;;;35.27;10.93;;;6.50;99.90;;;;;;5083176;28;20217;-59
2022/01/18 00:23:50;;;;;;;34.87;19.20;;;6.60;1.00;;;;;;5081635;28;20198;-58
2022/01/18 00:26:18;;;;;;;35.10;8.60;;;6.50;1.00;;;;;;5076685;28;20255;-59
2022/01/18 00:28:53;;;;;;;24.63;8.27;;;6.60;1.00;;;;;;5067916;28;20251;-59
2022/01/18 00:39:11;;;;;;;26.73;7.00;;;6.60;1.00;;;;;;5012176;28;20222;-58
2022/01/18 00:41:40;;;;;;;36.80;7.57;;;6.50;1.00;;;;;;5060140;28;20633;-58
2022/01/18 00:44:08;;;;;;;20.47;6.80;;;6.50;1.00;;;;;;5029037;28;20194;-58
2022/01/18 00:46:36;;;;;;;32.40;7.37;;;6.50;91.60;;;;;;5040088;28;20650;-57
2022/01/18 00:49:04;;;;;;;29.00;7.30;;;6.40;99.90;;;;;;5039259;28;20266;-56
2022/01/18 00:51:36;;;;;;;26.40;7.10;;;6.40;1.00;;;;;;5041747;28;20207;-58
2022/01/18 00:54:05;;;;;;;37.40;8.40;;;6.40;1.00;;;;;;5063274;28;20221;-58
2022/01/18 00:56:32;;;;;;;38.07;7.17;;;6.40;1.00;;;;;;5038792;28;20211;-57
2022/01/18 00:59:00;;;;;;;22.57;6.00;;;6.30;1.00;;;;;;5067401;28;20221;-57
2022/01/18 01:01:30;;;;;;;24.73;7.27;;;6.30;1.00;;;;;;5057961;28;20198;-58
2022/01/18 01:04:02;;;;;;;30.73;6.50;;;6.20;1.00;;;;;;5033375;28;20249;-58
2022/01/18 01:06:32;;;;;;;29.37;7.47;;;6.20;99.90;;;;;;5064035;28;20186;-58
2022/01/18 01:09:03;;;;;;;25.83;7.43;;;6.10;99.90;;;;;;5064942;28;20195;-58
2022/01/18 01:11:36;;;;;;;29.20;8.63;;;6.20;99.90;;;;;;5032790;28;20203;-57
2022/01/18 01:14:12;;;;;;;29.20;7.30;;;6.20;99.90;;;;;;5064143;28;20227;-58
2022/01/18 01:43:36;;;;;;;27.87;10.40;;;6.40;1.00;;;;;;5080933;28;21088;-59
2022/01/18 01:46:07;;;;;;;38.00;10.53;;;6.40;1.00;;;;;;5101643;28;20276;-59
2022/01/18 01:48:34;;;;;;;33.13;11.33;;;6.40;1.00;;;;;;5081258;28;20292;-60
2022/01/18 01:51:03;;;;;;;37.53;11.70;;;6.40;1.00;;;;;;5084063;28;20190;-58
2022/01/18 01:53:34;;;;;;;34.17;10.67;;;6.50;1.00;;;;;;5083517;28;20194;-58
2022/01/18 01:56:04;;;;;;;50.80;21.77;;;6.50;1.00;;;;;;5083991;28;20201;-58
2022/01/18 01:58:35;;;;;;;45.97;18.87;;;6.40;1.00;;;;;;5085854;28;20647;-58
2022/01/18 02:01:06;;;;;;;40.57;10.60;;;6.40;99.90;;;;;;5082685;28;20199;-57
2022/01/18 02:03:36;;;;;;;35.70;10.00;;;6.40;99.90;;;;;;5081482;28;20183;-57
2022/01/18 02:06:04;;;;;;;54.30;20.03;;;6.40;99.90;;;;;;5082412;28;20256;-58
2022/01/18 02:08:31;;;;;;;38.23;16.53;;;6.40;99.90;;;;;;5083877;28;20220;-57
2022/01/18 02:10:58;;;;;;;53.17;19.80;;;6.40;1.00;;;;;;5085669;28;20606;-58
2022/01/18 02:13:25;;;;;;;42.37;12.93;;;6.40;1.00;;;;;;5087003;28;20218;-58
2022/01/18 02:24:09;;;;;;;32.43;9.57;;;6.40;1.00;;;;;;5084872;28;20214;-58
2022/01/18 02:26:36;;;;;;;35.13;13.57;;;6.40;1.00;;;;;;5083703;28;20191;-59
2022/01/18 02:29:08;;;;;;;36.07;8.83;;;6.40;1.00;;;;;;5100915;28;20283;-58
2022/01/18 02:31:36;;;;;;;31.27;8.33;;;6.40;1.00;;;;;;5082147;28;20199;-58
2022/01/18 02:34:09;;;;;;;36.07;8.60;;;6.40;1.00;;;;;;5081546;28;20230;-58
2022/01/18 02:36:38;;;;;;;26.70;7.97;;;6.40;1.00;;;;;;5082242;28;20207;-59
2022/01/18 02:39:06;;;;;;;31.00;8.57;;;6.40;52.70;;;;;;5083648;28;20686;-58
2022/01/18 02:41:34;;;;;;;35.03;8.77;;;6.50;99.90;;;;;;5083632;28;20190;-57
2022/01/18 02:44:06;;;;;;;31.80;11.07;;;6.50;99.90;;;;;;5080412;28;20198;-57
2022/01/18 02:46:34;;;;;;;32.97;7.93;;;6.40;99.90;;;;;;5082235;28;20202;-57
2022/01/18 02:49:03;;;;;;;28.50;7.83;;;6.40;99.90;;;;;;5065694;28;20210;-57
2022/01/18 02:51:30;;;;;;;25.40;7.47;;;6.40;99.90;;;;;;5082172;28;20425;-57
2022/01/18 02:54:10;;;;;;;29.63;8.37;;;6.40;99.90;;;;;;5083608;28;20194;-58
2022/01/18 02:56:53;;;;;;;40.30;9.13;;;6.40;1.00;;;;;;5082704;28;20208;-58
2022/01/18 02:59:45;;;;;;;40.53;10.43;;;6.40;1.00;;;;;;5083692;28;20292;-58
2022/01/18 03:05:15;;;;;;;33.77;9.87;;;6.40;1.00;;;;;;5093871;28;20716;-57
2022/01/18 03:07:43;;;;;;;43.07;10.47;;;6.40;99.90;;;;;;5057190;28;20459;-57
2022/01/18 03:10:15;;;;;;;39.30;10.60;;;6.40;99.90;;;;;;5083267;28;20247;-57
2022/01/18 03:12:42;;;;;;;31.57;9.90;;;6.40;99.90;;;;;;5080421;28;20266;-59
2022/01/18 03:15:10;;;;;;;33.73;9.83;;;6.40;99.90;;;;;;5081778;28;20200;-57
2022/01/18 03:17:39;;;;;;;30.40;8.70;;;6.40;1.00;;;;;;5084140;28;20206;-58
2022/01/18 03:20:11;;;;;;;33.07;9.73;;;6.40;1.00;;;;;;5075237;28;20194;-57
2022/01/18 03:22:38;;;;;;;29.70;8.80;;;6.40;1.00;;;;;;5085053;28;20210;-57
2022/01/18 03:30:28;;;;;;;28.40;7.63;;;6.40;99.90;;;;;;5081570;28;20236;-58
2022/01/18 03:32:54;;;;;;;29.47;6.70;;;6.40;99.90;;;;;;5081209;28;20206;-57
2022/01/18 03:35:24;;;;;;;38.93;8.00;;;6.40;99.90;;;;;;5062055;28;20230;-59
2022/01/18 03:37:56;;;;;;;32.70;7.40;;;6.30;99.90;;;;;;5082162;28;20225;-59
2022/01/18 03:40:24;;;;;;;34.80;7.40;;;6.40;99.90;;;;;;5077089;28;20233;-58
2022/01/18 03:42:52;;;;;;;28.90;6.23;;;6.40;99.90;;;;;;5075233;28;20249;-58
2022/01/18 03:45:28;;;;;;;27.77;6.43;;;6.40;21.30;;;;;;5080961;28;20205;-59
2022/01/18 03:48:01;;;;;;;31.43;6.23;;;6.40;1.00;;;;;;5081464;28;20544;-58
2022/01/18 03:50:28;;;;;;;27.20;6.80;;;6.40;1.00;;;;;;5076494;28;20229;-57
2022/01/18 03:52:55;;;;;;;36.17;7.20;;;6.30;1.00;;;;;;5079954;28;20233;-57
2022/01/18 03:55:26;;;;;;;33.57;7.23;;;6.40;1.00;;;;;;5065186;28;20258;-57
2022/01/18 03:57:55;;;;;;;36.30;7.97;;;6.40;1.00;;;;;;5080424;28;23084;-57
2022/01/18 04:00:25;;;;;;;24.47;6.10;;;6.40;1.00;;;;;;5065137;28;20661;-58
2022/01/18 04:02:53;;;;;;;30.37;6.20;;;6.40;1.00;;;;;;5076403;28;20297;-57
2022/01/18 04:05:24;;;;;;;36.47;8.00;;;6.40;1.00;;;;;;5085668;28;20837;-57
2022/01/18 04:07:52;;;;;;;37.63;7.17;;;6.40;1.00;;;;;;5085503;28;20289;-57
2022/01/18 04:10:21;;;;;;;25.40;7.00;;;6.40;1.00;;;;;;5084965;28;20255;-57
2022/01/18 04:12:50;;;;;;;26.23;8.07;;;6.40;1.00;;;;;;5081524;28;20198;-58
2022/01/18 04:15:20;;;;;;;28.37;7.03;;;6.40;31.60;;;;;;5088451;28;20224;-56
2022/01/18 04:18:05;;;;;;;28.33;8.33;;;6.40;1.00;;;;;;5083993;28;20296;-58
2022/01/18 04:28:53;;;;;;;28.87;8.57;;;6.40;99.90;;;;;;5070567;28;20263;-57
2022/01/18 04:31:21;;;;;;;31.67;9.17;;;6.30;99.90;;;;;;5082995;28;20225;-57
2022/01/18 04:33:48;;;;;;;35.37;7.40;;;6.30;99.90;;;;;;5078996;28;20205;-57
2022/01/18 04:36:15;;;;;;;43.20;8.13;;;6.30;99.90;;;;;;5064163;28;20225;-57
2022/01/18 04:38:42;;;;;;;31.57;8.10;;;6.30;99.90;;;;;;5032002;28;20221;-58
2022/01/18 04:41:14;;;;;;;34.27;8.57;;;6.30;99.90;;;;;;5065539;28;20230;-57
2022/01/18 04:49:03;;;;;;;32.17;8.73;;;6.20;1.00;;;;;;5045995;28;20206;-57
2022/01/18 04:51:31;;;;;;;35.47;8.10;;;6.20;1.00;;;;;;5061062;28;20222;-57
2022/01/18 04:54:00;;;;;;;31.93;8.37;;;6.20;1.00;;;;;;5045643;28;20204;-57
2022/01/18 04:59:18;;;;;;;34.00;9.00;;;6.10;1.00;;;;;;5030773;28;20246;-58
2022/01/18 05:01:49;;;;;;;40.13;9.33;;;6.10;1.00;;;;;;5047990;28;20206;-57
2022/01/18 05:04:19;;;;;;;35.93;9.30;;;6.20;28.20;;;;;;5063207;28;20213;-58
2022/01/18 05:06:51;;;;;;;33.50;9.50;;;6.10;96.40;;;;;;5064601;28;20226;-57
2022/01/18 05:09:18;;;;;;;44.57;10.30;;;6.10;99.90;;;;;;5046822;28;20241;-57
2022/01/18 05:11:56;;;;;;;45.17;10.03;;;6.10;99.90;;;;;;5042972;28;20203;-59
2022/01/18 05:14:29;;;;;;;45.97;10.47;;;6.10;99.90;;;;;;5064420;28;20199;-58
2022/01/18 05:24:34;;;;;;;48.77;10.00;;;6.20;99.90;;;;;;5061864;28;20245;-59
2022/01/18 05:27:02;;;;;;;42.67;9.23;;;6.20;1.00;;;;;;5047652;28;20722;-57
2022/01/18 05:29:32;;;;;;;45.17;10.53;;;6.20;1.00;;;;;;5043906;28;20191;-60
2022/01/18 05:32:05;;;;;;;44.33;9.43;;;6.20;1.00;;;;;;5063361;28;20190;-59
2022/01/18 05:34:32;;;;;;;32.90;8.67;;;6.20;1.00;;;;;;5053709;28;20749;-59
2022/01/18 05:36:58;;;;;;;34.40;8.10;;;6.20;99.90;;;;;;5073441;28;20226;-59
2022/01/18 05:39:25;;;;;;;48.83;9.10;;;6.20;99.90;;;;;;5077613;28;20800;-59
2022/01/18 05:41:52;;;;;;;40.73;9.10;;;6.20;99.90;;;;;;5080923;28;20625;-60
2022/01/18 05:44:25;;;;;;;50.00;10.60;;;6.20;99.90;;;;;;5085433;28;20602;-60
2022/01/18 05:46:52;;;;;;;43.67;10.53;;;6.20;99.90;;;;;;5089177;28;20225;-60
2022/01/18 05:49:19;;;;;;;42.33;9.33;;;6.10;99.90;;;;;;5087816;28;20202;-60
2022/01/18 05:51:47;;;;;;;41.10;9.93;;;6.20;99.90;;;;;;5073938;28;20233;-60
2022/01/18 05:54:14;;;;;;;32.03;10.30;;;6.10;99.90;;;;;;5078309;28;20241;-60
2022/01/18 05:56:43;;;;;;;37.70;9.57;;;6.20;99.90;;;;;;5072712;28;20568;-59
2022/01/18 05:59:13;;;;;;;45.47;10.50;;;6.20;99.90;;;;;;5085045;28;20219;-60
2022/01/18 06:01:47;;;;;;;40.93;9.60;;;6.20;99.90;;;;;;5085966;28;20206;-59
2022/01/18 06:06:50;;;;;;;40.97;8.67;;;6.20;99.90;;;;;;5092363;28;20190;-60
2022/01/18 06:07:04;;;;;;;32.20;8.27;;;6.20;99.90;;;;;;5084484;28;20208;-59
2022/01/18 06:09:32;;;;;;;30.87;7.90;;;6.20;99.90;;;;;;5089120;28;20198;-60
2022/01/18 06:11:59;;;;;;;34.33;7.67;;;6.20;99.90;;;;;;5087995;28;20374;-59
2022/01/18 06:14:26;;;;;;;38.23;7.67;;;6.20;99.90;;;;;;5083328;28;20195;-59
2022/01/18 06:16:53;;;;;;;42.57;9.53;;;6.20;99.90;;;;;;5083181;28;20206;-59
2022/01/18 06:19:20;;;;;;;40.27;8.97;;;6.20;99.90;;;;;;5082204;28;20210;-58
2022/01/18 06:21:46;;;;;;;44.67;8.77;;;6.20;98.30;;;;;;5089513;28;20214;-58
2022/01/18 06:24:16;;;;;;;35.73;8.20;;;6.20;29.80;;;;;;5069354;28;20808;-59
2022/01/18 06:27:05;;;;;;;32.03;8.40;;;6.20;1.00;;;;;;5090357;28;20713;-59
2022/01/18 06:29:32;;;;;;;36.97;9.27;;;6.20;1.00;;;;;;5089468;28;20229;-58
2022/01/18 06:31:59;;;;;;;40.90;8.40;;;6.20;1.00;;;;;;5085913;28;20256;-58
2022/01/18 06:34:26;;;;;;;35.07;9.73;;;6.20;1.00;;;;;;5086493;28;20252;-58
2022/01/18 06:36:53;;;;;;;29.70;8.73;;;6.20;1.00;;;;;;5088260;28;20202;-59
2022/01/18 06:39:20;;;;;;;24.63;8.07;;;6.10;1.00;;;;;;5088817;28;20218;-59
2022/01/18 06:41:49;;;;;;;40.43;9.50;;;6.10;1.00;;;;;;5089191;28;20194;-59
2022/01/18 06:44:18;;;;;;;36.63;9.57;;;6.20;1.00;;;;;;5094267;28;20719;-59
2022/01/18 06:46:45;;;;;;;48.60;11.23;;;6.20;1.00;;;;;;5086851;28;20202;-59
2022/01/18 06:49:12;;;;;;;38.53;11.27;;;6.20;1.00;;;;;;5082986;28;20202;-59
2022/01/18 06:51:39;;;;;;;47.97;13.53;;;6.20;1.00;;;;;;5084835;28;20264;-59
2022/01/18 06:54:14;;;;;;;38.87;10.90;;;6.20;1.00;;;;;;5086744;28;20213;-59
2022/01/18 06:56:49;;;;;;;37.47;11.40;;;6.20;1.00;;;;;;5088186;28;20225;-59
2022/01/18 06:59:17;;;;;;;47.20;11.27;;;6.20;1.00;;;;;;5083848;28;20621;-59
2022/01/18 07:01:44;;;;;;;30.70;9.03;;;6.20;99.90;;;;;;5106520;28;20198;-59
2022/01/18 07:04:13;;;;;;;33.83;8.97;;;6.10;99.90;;;;;;5081657;28;20229;-60
2022/01/18 07:06:40;;;;;;;36.97;9.57;;;6.20;99.90;;;;;;5085262;28;20210;-59
2022/01/18 07:09:09;;;;;;;29.57;8.60;;;6.20;99.90;;;;;;5087357;28;20201;-59
2022/01/18 07:11:39;;;;;;;31.90;8.20;;;6.20;99.90;;;;;;5080308;28;20223;-59
2022/01/18 07:14:06;;;;;;;34.43;8.17;;;6.20;99.90;;;;;;5065154;28;20230;-59
2022/01/18 07:16:35;;;;;;;35.50;7.77;;;6.20;99.90;;;;;;5081959;28;20201;-59
2022/01/18 07:19:02;;;;;;;42.57;8.37;;;6.10;99.90;;;;;;5082578;28;20532;-59
2022/01/18 07:21:29;;;;;;;31.80;7.60;;;6.20;44.20;;;;;;5085109;28;20222;-59
2022/01/18 07:24:14;;;;;;;41.20;8.00;;;6.20;40.10;;;;;;5082410;28;20201;-59
2022/01/18 07:26:41;;;;;;;33.97;9.70;;;6.20;1.00;;;;;;5078718;28;20220;-59
2022/01/18 07:29:08;;;;;;;30.03;8.87;;;6.20;1.00;;;;;;5080651;28;20251;-59
2022/01/18 07:31:35;;;;;;;35.57;9.00;;;6.20;1.00;;;;;;5083323;28;20190;-60
2022/01/18 07:34:02;;;;;;;41.93;9.87;;;6.20;1.00;;;;;;5088171;28;20241;-58
2022/01/18 07:36:32;;;;;;;33.80;9.00;;;6.20;1.00;;;;;;5087329;28;20222;-59
2022/01/18 07:38:59;;;;;;;29.10;8.67;;;6.20;1.00;;;;;;5062706;28;20218;-59
2022/01/18 07:41:28;;;;;;;31.50;7.87;;;6.20;1.00;;;;;;5086756;28;20218;-59
2022/01/18 07:43:55;;;;;;;32.33;8.67;;;6.20;1.00;;;;;;5078655;28;20194;-59
2022/01/18 07:46:22;;;;;;;32.37;9.47;;;6.30;1.00;;;;;;5079915;28;20186;-59
2022/01/18 07:48:49;;;;;;;38.27;8.23;;;6.30;1.00;;;;;;5075687;28;20273;-58
2022/01/18 07:51:18;;;;;;;28.07;8.17;;;6.30;1.00;;;;;;5085256;28;20206;-59
2022/01/18 07:53:47;;;;;;;32.80;8.50;;;6.20;1.00;;;;;;5074720;28;20278;-59
2022/01/18 07:56:14;;;;;;;43.00;8.17;;;6.30;99.90;;;;;;5084534;28;20189;-59
2022/01/18 07:58:41;;;;;;;30.73;7.73;;;6.30;99.90;;;;;;5084588;28;20271;-58
2022/01/18 08:01:08;;;;;;;28.90;7.53;;;6.30;99.90;;;;;;5080793;28;20214;-58
2022/01/18 08:03:35;;;;;;;35.70;8.17;;;6.30;23.70;;;;;;5079048;28;20194;-59
2022/01/18 08:06:03;;;;;;;29.67;7.63;;;6.40;1.00;;;;;;5081682;28;20267;-59
2022/01/18 08:08:30;;;;;;;29.70;9.37;;;6.40;1.00;;;;;;5059185;28;20663;-58
2022/01/18 08:10:59;;;;;;;36.60;7.97;;;6.40;1.00;;;;;;5086979;23;20567;-57
2022/01/18 08:13:34;;;;;;;44.47;10.00;;;6.40;1.00;;;;;;5055694;23;20255;-58
2022/01/18 08:16:21;;;;;;;28.40;8.13;;;6.50;99.90;;;;;;4985334;28;20236;-58
2022/01/18 08:18:50;;;;;;;28.23;8.23;;;6.50;99.90;;;;;;4985755;28;20236;-59
2022/01/18 08:21:17;;;;;;;38.17;7.53;;;6.60;99.90;;;;;;4980754;28;20198;-58
2022/01/18 08:23:44;;;;;;;30.77;8.90;;;6.60;99.90;;;;;;4987554;28;20302;-59
2022/01/18 08:26:11;;;;;;;26.07;8.10;;;6.70;75.90;;;;;;4985597;28;20205;-59
2022/01/18 08:28:38;;;;;;;28.53;7.37;;;6.70;1.00;;;;;;4987067;28;20230;-59
2022/01/18 08:31:10;;;;;;;56.73;10.17;;;6.80;1.00;;;;;;5002106;28;20189;-58
2022/01/18 08:33:38;;;;;;;50.67;10.50;;;6.80;1.00;;;;;;4983712;28;20630;-59
2022/01/18 08:36:09;;;;;;;58.13;10.97;;;6.80;1.00;;;;;;5000757;28;20279;-59
2022/01/18 08:38:37;;;;;;;45.67;10.27;;;6.90;99.90;;;;;;4988113;28;20289;-59
2022/01/18 08:41:05;;;;;;;50.63;10.70;;;6.90;99.90;;;;;;5002973;28;20197;-59
2022/01/18 08:43:36;;;;;;;56.93;10.63;;;7.00;99.90;;;;;;4986899;28;20260;-59
2022/01/18 08:46:03;;;;;;;35.90;9.30;;;6.90;5.30;;;;;;4987246;28;20193;-59
2022/01/18 08:48:31;;;;;;;44.60;9.70;;;7.00;1.00;;;;;;4969694;28;20715;-59
2022/01/18 08:50:59;;;;;;;50.93;11.47;;;6.90;1.00;;;;;;4989656;28;20275;-58
2022/01/18 08:53:26;;;;;;;31.87;8.57;;;7.00;1.00;;;;;;5001527;28;20232;-58
2022/01/18 08:55:54;;;;;;;33.63;9.97;;;7.00;1.00;;;;;;4985509;28;20205;-58
2022/01/18 08:58:23;;;;;;;57.60;11.03;;;7.10;1.00;;;;;;4990009;28;20234;-59
2022/01/18 09:00:50;;;;;;;32.10;7.83;;;7.20;1.00;;;;;;4987448;28;20231;-59
2022/01/18 09:03:18;;;;;;;34.37;9.43;;;7.20;99.90;;;;;;5000427;28;20204;-60
2022/01/18 09:05:46;;;;;;;42.40;9.53;;;7.30;99.90;;;;;;5003848;28;20644;-58
2022/01/18 09:08:15;;;;;;;32.60;9.43;;;7.40;99.90;;;;;;4990902;28;20208;-59
2022/01/18 09:10:44;;;;;;;27.57;8.17;;;7.50;1.00;;;;;;4984987;28;20193;-59
2022/01/18 09:13:11;;;;;;;28.60;9.53;;;7.60;1.00;;;;;;4987921;28;20201;-59
2022/01/18 09:15:38;;;;;;;26.87;8.00;;;7.70;1.00;;;;;;5003584;28;20939;-59
2022/01/18 09:18:05;;;;;;;21.57;7.17;;;7.70;1.00;;;;;;4991285;28;20954;-59
2022/01/18 09:20:32;;;;;;;27.00;7.80;;;7.70;1.00;;;;;;4988215;28;20201;-58
2022/01/18 09:22:59;;;;;;;31.43;8.90;;;7.70;1.00;;;;;;4993960;28;20670;-58
2022/01/18 09:25:30;;;;;;;21.30;8.20;;;7.70;1.00;;;;;;5008236;28;20228;-58
2022/01/18 09:27:57;;;;;;;26.53;8.70;;;7.80;1.00;;;;;;4994236;28;20292;-58
2022/01/18 09:30:28;;;;;;;24.77;8.10;;;7.80;1.00;;;;;;4979702;28;20193;-58
2022/01/18 09:32:59;;;;;;;29.17;9.00;;;7.80;1.00;;;;;;4989983;28;20253;-58
2022/01/18 09:35:28;;;;;;;44.23;9.87;;;7.80;1.00;;;;;;4988278;28;20205;-58
2022/01/18 09:37:57;;;;;;;41.67;9.57;;;8.00;1.00;;;;;;4994719;28;20204;-58
2022/01/18 09:40:25;;;;;;;24.83;9.93;;;8.00;99.90;;;;;;4995478;28;20196;-59
2022/01/18 09:42:58;;;;;;;25.43;8.53;;;8.00;99.90;;;;;;4994358;28;20616;-59
2022/01/18 09:45:29;;;;;;;28.53;8.27;;;8.20;99.90;;;;;;5009002;28;20239;-59
2022/01/18 09:47:57;;;;;;;23.23;8.93;;;8.40;99.90;;;;;;5007781;28;20208;-59
2022/01/18 09:50:29;;;;;;;19.77;7.60;;;8.60;91.00;;;;;;5007910;28;20718;-58
2022/01/18 09:52:59;;;;;;;20.73;8.10;;;8.70;1.00;;;;;;5011492;28;20952;-58
2022/01/18 09:55:30;;;;;;;23.73;9.10;;;8.80;1.00;;;;;;5010716;28;20715;-58
2022/01/18 09:57:58;;;;;;;28.13;12.80;;;8.70;1.00;;;;;;4993581;28;20193;-58
2022/01/18 10:00:29;;;;;;;18.27;8.43;;;8.70;1.00;;;;;;4991805;28;20217;-58
2022/01/18 10:02:57;;;;;;;26.40;8.53;;;8.70;1.00;;;;;;4990859;28;20308;-59
2022/01/18 10:05:34;;;;;;;21.47;6.77;;;8.70;1.00;;;;;;5007744;28;20200;-59
2022/01/18 10:08:14;;;;;;;25.73;8.87;;;8.80;1.00;;;;;;4992419;28;20288;-59
2022/01/18 10:10:53;;;;;;;24.07;8.57;;;9.00;1.00;;;;;;4987293;28;20193;-59
2022/01/18 10:13:45;;;;;;;15.03;6.57;;;9.40;1.00;;;;;;5007926;28;20200;-59
2022/01/18 10:16:20;;;;;;;20.43;7.23;;;9.50;99.90;;;;;;5008314;28;20221;-59
2022/01/18 10:18:55;;;;;;;15.00;6.33;;;9.80;99.90;;;;;;4985946;28;20850;-59
2022/01/18 10:21:34;;;;;;;19.77;7.00;;;9.90;99.90;;;;;;4973669;28;20725;-59
2022/01/18 10:24:30;;;;;;;23.73;8.20;;;9.90;99.90;;;;;;4992570;28;20243;-59
2022/01/18 10:26:57;;;;;;;26.27;8.60;;;9.90;99.90;;;;;;5008912;28;20687;-59
2022/01/18 10:29:29;;;;;;;26.67;7.87;;;10.00;99.90;;;;;;4974719;28;20743;-58
2022/01/18 10:31:59;;;;;;;18.30;7.27;;;10.30;99.90;;;;;;4980202;28;20248;-58
2022/01/18 10:37:03;;;;;;;17.10;6.37;;;11.00;1.00;;;;;;5001038;28;20219;-59
2022/01/18 10:39:50;;;;;;;22.70;6.77;;;11.40;1.00;;;;;;4970291;28;20218;-59
2022/01/18 10:42:21;;;;;;;22.37;6.70;;;11.80;1.00;;;;;;4998646;28;20189;-59
2022/01/18 10:44:57;;;;;;;21.65;6.60;;;11.90;1.00;;;;;;4998925;28;20683;-59
2022/01/18 10:47:25;;;;;;;19.65;7.53;;;12.50;99.90;;;;;;4998163;28;20224;-59
2022/01/18 10:49:52;;;;;;;14.82;6.05;;;14.40;1.00;;;;;;4978961;28;20209;-59
2022/01/18 10:52:22;;;;;;;16.20;6.43;;;15.60;1.00;;;;;;4998805;28;20201;-59
2022/01/18 10:54:51;;;;;;;15.80;5.55;;;16.10;1.00;;;;;;4999418;28;20275;-59
2022/01/18 10:57:39;;;;;;;16.92;5.75;;;15.20;1.00;;;;;;4972818;28;20201;-59
2022/01/18 11:00:06;;;;;;;14.77;5.53;;;14.00;1.00;;;;;;5000758;28;20665;-59
2022/01/18 11:02:37;;;;;;;16.40;6.75;;;13.40;14.30;;;;;;5001364;28;20559;-59
2022/01/18 11:05:14;;;;;;;15.60;6.30;;;13.20;97.50;;;;;;4984715;28;20732;-59
2022/01/18 11:07:43;;;;;;;17.85;6.25;;;12.70;99.90;;;;;;4986169;28;20260;-59
2022/01/18 11:10:12;;;;;;;24.25;8.25;;;12.20;99.90;;;;;;4992290;28;20197;-59
2022/01/18 11:12:47;;;;;;;20.88;6.70;;;11.80;99.90;;;;;;4963700;28;20213;-57
2022/01/18 11:15:21;;;;;;;24.70;8.40;;;11.60;1.00;;;;;;4979682;28;20332;-58
2022/01/18 11:18:06;;;;;;;17.35;6.10;;;11.50;1.00;;;;;;4987094;28;20213;-58
2022/01/18 11:20:42;;;;;;;20.90;6.90;;;11.90;99.90;;;;;;4988273;28;20311;-58
2022/01/18 11:23:09;;;;;;;15.35;5.68;;;12.80;99.90;;;;;;5000092;28;20283;-58
2022/01/18 11:25:37;;;;;;;20.27;6.13;;;13.60;99.90;;;;;;4989348;28;20233;-58
2022/01/18 11:28:09;;;;;;;22.05;5.97;;;13.90;1.00;;;;;;4991419;28;20292;-58
2022/01/18 11:30:39;;;;;;;20.20;6.15;;;14.00;1.00;;;;;;5000631;28;20283;-59
2022/01/18 11:33:10;;;;;;;35.72;7.93;;;14.10;1.00;;;;;;4971037;28;20627;-59
2022/01/18 11:36:02;;;;;;;15.90;5.10;;;14.60;1.00;;;;;;4987403;28;20232;-59
2022/01/18 11:38:37;;;;;;;12.88;5.18;;;16.40;1.00;;;;;;4981861;28;20733;-58
2022/01/18 11:41:21;;;;;;;47.50;8.80;;;16.50;99.90;;;;;;4987206;28;20276;-59
2022/01/18 11:43:51;;;;;;;24.17;6.40;;;15.00;1.00;;;;;;4999948;28;21184;-59
2022/01/18 11:46:24;;;;;;;25.02;7.00;;;14.00;1.00;;;;;;4982639;28;20189;-59
2022/01/18 11:49:15;;;;;;;21.13;6.28;;;13.30;1.00;;;;;;4985977;28;20204;-59
2022/01/18 11:51:48;;;;;;;21.55;7.50;;;13.70;1.00;;;;;;5000000;28;20221;-59
2022/01/18 11:54:26;;;;;;;18.70;8.50;;;13.30;1.00;;;;;;5002059;28;20232;-59
2022/01/18 11:56:53;;;;;;;18.33;6.25;;;12.90;1.00;;;;;;4985877;28;20731;-59
2022/01/18 11:59:35;;;;;;;16.20;6.45;;;12.60;30.00;;;;;;4984319;28;20217;-58
2022/01/18 12:02:05;;;;;;;16.17;6.22;;;12.50;99.90;;;;;;4998507;28;20296;-59
2022/01/18 12:07:34;;;;;;;16.60;7.73;;;12.10;99.90;;;;;;4996380;28;20287;-59
2022/01/18 12:10:07;;;;;;;20.90;7.30;;;11.50;99.90;;;;;;4967068;28;20671;-59
2022/01/18 12:12:44;;;;;;;19.70;5.83;;;11.10;99.90;;;;;;4981133;28;20208;-58
2022/01/18 12:15:22;;;;;;;18.27;6.43;;;10.70;1.00;;;;;;4991772;28;20265;-59
2022/01/18 12:18:01;;;;;;;21.20;7.33;;;10.50;1.00;;;;;;5000320;28;20700;-59
2022/01/18 12:20:43;;;;;;;23.60;9.50;;;10.40;1.00;;;;;;5000344;28;20220;-59
2022/01/18 12:23:12;;;;;;;17.53;6.70;;;10.60;1.00;;;;;;4984861;28;20207;-59
2022/01/18 12:26:02;;;;;;;21.27;6.97;;;10.70;1.00;;;;;;4987566;28;20301;-59
2022/01/18 12:34:30;;;;;;;19.60;8.33;;;11.70;99.90;;;;;;4998796;28;20815;-59
2022/01/18 12:39:54;;;;;;;14.80;6.60;;;11.90;1.00;;;;;;4980820;28;20213;-59
2022/01/18 12:45:22;;;;;;;20.90;7.88;;;14.10;1.00;;;;;;4993948;28;20196;-59
2022/01/18 12:47:55;;;;;;;14.05;7.18;;;14.60;1.00;;;;;;4980878;28;20276;-59
2022/01/18 12:50:28;;;;;;;18.88;8.07;;;15.40;1.00;;;;;;4972897;28;21135;-59
2022/01/18 12:53:05;;;;;;;18.40;8.68;;;15.80;99.90;;;;;;4988295;28;20247;-59
2022/01/18 12:55:54;;;;;;;19.67;8.60;;;16.40;99.90;;;;;;5002103;28;20631;-59
2022/01/18 12:58:27;;;;;;;15.82;7.55;;;16.50;99.90;;;;;;4978288;28;20676;-59
2022/01/18 13:01:14;;;;;;;14.80;6.45;;;16.60;99.90;;;;;;5002837;28;20209;-59
2022/01/18 13:03:51;;;;;;;14.10;6.88;;;16.00;99.90;;;;;;4970680;28;20200;-58
2022/01/18 13:06:22;;;;;;;19.20;6.88;;;14.50;99.90;;;;;;5001571;28;20204;-58
2022/01/18 13:08:57;;;;;;;17.97;6.87;;;13.80;1.00;;;;;;4999160;28;20220;-58
2022/01/18 13:11:27;;;;;;;16.20;7.63;;;12.80;1.00;;;;;;4998553;28;20816;-58
2022/01/18 13:14:08;;;;;;;18.93;6.87;;;12.90;1.00;;;;;;4979144;28;20236;-59
2022/01/18 13:27:33;;;;;;;25.90;11.03;;;11.30;99.90;;;;;;5000528;28;20211;-58
2022/01/18 13:30:12;;;;;;;23.27;9.53;;;11.00;99.90;;;;;;5004512;28;20279;-58
2022/01/18 13:32:45;;;;;;;22.77;9.03;;;10.70;99.90;;;;;;5005217;28;20196;-59
2022/01/18 13:35:12;;;;;;;20.27;9.17;;;10.40;99.90;;;;;;4986020;28;20699;-59
2022/01/18 13:37:40;;;;;;;20.00;10.63;;;10.10;1.00;;;;;;5003036;28;20260;-59
2022/01/18 13:40:11;;;;;;;21.80;11.13;;;9.90;1.00;;;;;;4970936;28;20417;-59
2022/01/18 13:42:42;;;;;;;25.80;11.73;;;9.90;1.00;;;;;;4989700;28;20751;-58
2022/01/18 13:45:25;;;;;;;26.17;11.73;;;9.90;1.00;;;;;;5006468;28;20227;-58
2022/01/18 13:48:01;;;;;;;23.97;11.77;;;10.00;1.00;;;;;;5004379;28;20202;-58
2022/01/18 13:50:39;;;;;;;23.87;11.47;;;10.00;1.00;;;;;;4980926;28;20200;-59
2022/01/18 13:53:09;;;;;;;22.83;12.03;;;9.90;1.00;;;;;;4985804;28;20190;-58
2022/01/18 13:55:38;;;;;;;24.03;11.47;;;10.00;1.00;;;;;;4991862;28;20196;-58
2022/01/18 13:58:06;;;;;;;25.50;12.00;;;9.80;1.00;;;;;;4984839;28;20258;-58
2022/01/18 14:00:33;;;;;;;27.07;14.63;;;9.80;1.00;;;;;;4977837;28;20224;-58
2022/01/18 14:03:00;;;;;;;37.70;14.43;;;9.70;1.00;;;;;;5001552;28;20201;-59
2022/01/18 14:05:27;;;;;;;30.17;14.53;;;9.70;1.00;;;;;;5002705;28;20190;-59
2022/01/18 14:08:11;;;;;;;23.73;14.37;;;9.50;1.00;;;;;;5005473;28;20949;-58
2022/01/18 14:10:38;;;;;;;31.47;15.80;;;9.30;1.00;;;;;;4972985;28;20209;-59
2022/01/18 14:13:05;;;;;;;30.80;14.27;;;9.30;1.00;;;;;;4986728;28;20260;-59
2022/01/18 14:15:41;;;;;;;37.23;15.23;;;9.10;1.00;;;;;;4985568;28;20233;-59
2022/01/18 14:18:10;;;;;;;27.93;13.93;;;9.00;1.00;;;;;;4989669;28;20189;-58
2022/01/18 14:20:41;;;;;;;26.70;13.47;;;8.90;1.00;;;;;;4969378;28;21146;-58
2022/01/18 14:23:21;;;;;;;29.57;13.40;;;8.80;1.00;;;;;;4992936;28;20255;-58
2022/01/18 14:25:54;;;;;;;25.43;11.53;;;8.70;1.00;;;;;;4979985;28;21021;-58
2022/01/18 14:28:29;;;;;;;29.10;12.67;;;8.60;1.00;;;;;;4975819;28;20224;-58
2022/01/18 14:31:06;;;;;;;22.87;11.37;;;8.50;3.90;;;;;;4988086;28;20205;-59
2022/01/18 14:33:33;;;;;;;37.07;18.13;;;8.50;1.00;;;;;;4998169;28;20631;-58
2022/01/18 14:36:00;;;;;;;33.33;17.20;;;8.50;1.00;;;;;;4966583;28;20217;-58
2022/01/18 14:38:29;;;;;;;32.90;15.07;;;8.40;1.00;;;;;;4998341;28;20196;-59
2022/01/18 14:40:56;;;;;;;31.17;13.27;;;8.40;4.10;;;;;;4975332;28;20231;-59
2022/01/18 14:43:28;;;;;;;30.03;13.07;;;8.30;22.80;;;;;;4984676;28;20206;-59
2022/01/18 14:46:07;;;;;;;26.73;13.07;;;8.40;3.30;;;;;;4999887;28;20612;-59
2022/01/18 14:48:37;;;;;;;27.97;12.03;;;8.40;15.70;;;;;;4985162;28;20236;-60
2022/01/18 14:51:04;;;;;;;23.40;12.33;;;8.40;1.00;;;;;;4998916;28;20208;-60
2022/01/18 14:53:35;;;;;;;26.13;12.87;;;8.40;30.50;;;;;;4985487;28;20205;-59
2022/01/18 14:56:06;;;;;;;25.37;11.27;;;8.40;37.70;;;;;;4987032;28;20197;-60
2022/01/18 14:58:33;;;;;;;29.03;12.37;;;8.40;7.90;;;;;;5001622;28;20276;-59